createdAt,value
2022-12-25T00:04:48.757Z,55.16
2022-12-25T00:09:50.995Z,55.05
2022-12-25T00:14:53.250Z,55.08
2022-12-25T00:19:56.666Z,54.91
2022-12-25T00:24:58.837Z,54.94
2022-12-25T00:30:01.835Z,55.23
2022-12-25T00:35:05.691Z,55.18
2022-12-25T00:40:08.038Z,55.13
2022-12-25T00:45:10.742Z,55.19
2022-12-25T00:50:12.985Z,55.31
2022-12-25T00:55:15.299Z,55.44
2022-12-25T01:00:17.534Z,55.43
2022-12-25T01:05:19.614Z,55.11
2022-12-25T01:10:24.678Z,55.10
2022-12-25T01:15:26.874Z,55.18
2022-12-25T01:20:29.062Z,55.37
2022-12-25T01:25:31.196Z,55.49
2022-12-25T01:30:33.959Z,55.36
2022-12-25T01:35:39.714Z,55.36
2022-12-25T01:40:41.904Z,55.21
2022-12-25T01:45:48.702Z,55.20
2022-12-25T01:51:01.810Z,55.21
2022-12-25T01:56:08.046Z,55.09
2022-12-25T02:01:11.034Z,55.23
2022-12-25T02:06:13.208Z,55.19
2022-12-25T02:11:35.305Z,55.25
2022-12-25T02:16:57.414Z,55.25
2022-12-25T02:22:23.276Z,55.18
2022-12-25T02:27:42.605Z,55.22
2022-12-25T02:33:15.927Z,55.01
2022-12-25T02:38:27.405Z,55.14
2022-12-25T02:43:59.772Z,55.05
2022-12-25T02:49:27.895Z,55.11
2022-12-25T02:54:59.342Z,55.04
2022-12-25T03:00:22.432Z,55.13
2022-12-25T03:06:02.128Z,55.06
2022-12-25T03:11:27.639Z,54.97
2022-12-25T03:16:49.257Z,55.08
2022-12-25T03:22:11.584Z,55.15
2022-12-25T03:27:13.800Z,55.19
2022-12-25T03:32:22.984Z,55.01
2022-12-25T03:38:12.608Z,55.03
2022-12-25T03:43:37.355Z,55.03
2022-12-25T03:49:02.428Z,54.86
2022-12-25T03:54:27.688Z,55.08
2022-12-25T03:59:48.384Z,55.03
2022-12-25T04:05:22.879Z,55.13
2022-12-25T04:10:43.914Z,55.14
2022-12-25T04:16:04.339Z,55.08
2022-12-25T04:21:24.885Z,55.16
2022-12-25T04:26:45.579Z,55.03
2022-12-25T04:32:06.150Z,54.96
2022-12-25T04:37:08.266Z,55.07
2022-12-25T04:42:10.686Z,54.91
2022-12-25T04:47:13.296Z,54.93
2022-12-25T04:52:15.580Z,54.86
2022-12-25T04:57:17.891Z,55.15
2022-12-25T05:02:20.268Z,55.25
2022-12-25T05:07:22.466Z,55.01
2022-12-25T05:12:24.726Z,54.84
2022-12-25T05:17:26.993Z,54.69
2022-12-25T05:22:29.201Z,54.87
2022-12-25T05:27:31.455Z,54.83
2022-12-25T05:32:33.782Z,55.30
2022-12-25T05:37:37.019Z,55.19
2022-12-25T05:42:39.221Z,55.17
2022-12-25T05:47:41.730Z,55.29
2022-12-25T05:52:43.895Z,55.14
2022-12-25T05:57:46.065Z,55.20
2022-12-25T06:02:48.409Z,55.32
2022-12-25T06:07:50.753Z,55.37
2022-12-25T06:12:52.933Z,55.48
2022-12-25T06:17:55.072Z,55.43
2022-12-25T06:22:57.477Z,55.52
2022-12-25T06:27:59.591Z,55.44
2022-12-25T06:33:01.784Z,55.44
2022-12-25T06:38:03.994Z,55.62
2022-12-25T06:43:06.127Z,55.57
2022-12-25T06:48:08.233Z,55.47
2022-12-25T06:53:10.385Z,55.49
2022-12-25T06:58:12.948Z,55.46
2022-12-25T07:03:20.322Z,55.61
2022-12-25T07:08:22.518Z,55.75
2022-12-25T07:13:26.171Z,55.54
2022-12-25T07:18:29.135Z,55.69
2022-12-25T07:23:31.329Z,55.75
2022-12-25T07:28:34.489Z,55.64
2022-12-25T07:33:37.075Z,55.82
2022-12-25T07:38:39.185Z,55.73
2022-12-25T07:43:41.822Z,55.79
2022-12-25T07:48:43.980Z,55.89
2022-12-25T07:53:46.597Z,55.66
2022-12-25T07:58:49.160Z,55.67
2022-12-25T08:03:53.485Z,55.68
2022-12-25T08:08:57.043Z,55.72
2022-12-25T08:13:59.322Z,55.79
2022-12-25T08:19:01.656Z,55.72
2022-12-25T08:24:04.008Z,55.62
2022-12-25T08:29:06.106Z,55.49
2022-12-25T08:34:08.257Z,55.41
2022-12-25T08:39:10.591Z,55.53
2022-12-25T08:44:13.208Z,55.27
2022-12-25T08:49:16.623Z,55.47
2022-12-25T08:54:18.722Z,55.59
2022-12-25T09:00:16.745Z,55.59
2022-12-25T09:05:18.714Z,55.49
2022-12-25T09:10:21.384Z,55.58
2022-12-25T09:15:23.507Z,55.45
2022-12-25T09:20:25.757Z,55.59
2022-12-25T09:25:27.894Z,55.86
2022-12-25T09:30:30.072Z,55.91
2022-12-25T09:35:32.289Z,55.71
2022-12-25T09:40:35.020Z,55.80
2022-12-25T09:45:38.977Z,55.81
2022-12-25T09:50:53.442Z,55.65
2022-12-25T09:56:04.617Z,55.61
2022-12-25T10:01:20.005Z,55.93
2022-12-25T10:07:10.209Z,55.99
2022-12-25T10:12:35.793Z,55.93
2022-12-25T10:17:49.907Z,55.83
2022-12-25T10:22:57.523Z,55.78
2022-12-25T10:28:10.594Z,56.04
2022-12-25T10:33:17.195Z,56.16
2022-12-25T10:38:20.543Z,56.00
2022-12-25T10:43:49.202Z,56.10
2022-12-25T10:48:55.862Z,56.14
2022-12-25T10:53:58.530Z,56.13
2022-12-25T10:59:10.591Z,55.91
2022-12-25T11:04:35.276Z,56.11
2022-12-25T11:09:37.460Z,56.01
2022-12-25T11:14:39.646Z,55.87
2022-12-25T11:19:52.528Z,56.02
2022-12-25T11:24:55.375Z,55.65
2022-12-25T11:30:03.460Z,55.88
2022-12-25T11:35:13.476Z,55.95
2022-12-25T11:40:28.022Z,56.29
2022-12-25T11:45:38.786Z,56.26
2022-12-25T11:50:57.649Z,56.25
2022-12-25T11:56:08.725Z,56.14
2022-12-25T12:01:20.027Z,56.28
2022-12-25T12:06:40.655Z,56.20
2022-12-25T12:11:49.982Z,56.15
2022-12-25T12:16:52.349Z,56.31
2022-12-25T12:22:00.491Z,56.59
2022-12-25T12:27:06.816Z,56.68
2022-12-25T12:32:43.378Z,56.86
2022-12-25T12:37:50.307Z,56.73
2022-12-25T12:42:52.726Z,56.61
2022-12-25T12:47:55.369Z,56.69
2022-12-25T12:52:58.739Z,56.63
2022-12-25T12:58:06.379Z,56.59
2022-12-25T13:03:32.342Z,56.59
2022-12-25T13:09:09.922Z,56.71
2022-12-25T13:14:21.899Z,57.14
2022-12-25T13:19:27.811Z,57.11
2022-12-25T13:24:32.721Z,57.35
2022-12-25T13:29:38.232Z,57.20
2022-12-25T13:34:42.830Z,57.39
2022-12-25T13:39:55.235Z,57.65
2022-12-25T13:45:06.557Z,57.72
2022-12-25T13:50:21.413Z,57.62
2022-12-25T13:55:29.225Z,57.56
2022-12-25T14:00:37.068Z,57.54
2022-12-25T14:05:42.772Z,57.38
2022-12-25T14:10:50.644Z,57.24
2022-12-25T14:15:55.899Z,57.17
2022-12-25T14:21:01.921Z,57.00
2022-12-25T14:26:04.180Z,57.02
2022-12-25T14:31:06.350Z,56.78
2022-12-25T14:36:13.032Z,56.76
2022-12-25T14:41:24.187Z,56.70
2022-12-25T14:46:30.945Z,56.53
2022-12-25T14:51:35.582Z,56.34
2022-12-25T14:56:39.461Z,56.32
2022-12-25T15:01:42.253Z,56.16
2022-12-25T15:07:07.470Z,56.17
2022-12-25T15:12:09.946Z,56.32
2022-12-25T15:17:25.277Z,56.29
2022-12-25T15:22:37.470Z,56.25
2022-12-25T15:27:49.771Z,56.24
2022-12-25T15:32:52.060Z,56.15
2022-12-25T15:37:54.338Z,56.20
2022-12-25T15:42:56.884Z,56.24
2022-12-25T15:47:59.398Z,56.18
2022-12-25T15:53:01.534Z,56.17
2022-12-25T15:58:03.678Z,55.96
2022-12-25T16:03:06.072Z,56.27
2022-12-25T16:08:09.395Z,56.16
2022-12-25T16:13:11.610Z,56.09
2022-12-25T16:18:13.811Z,56.11
2022-12-25T16:23:16.103Z,56.06
2022-12-25T16:28:18.334Z,56.21
2022-12-25T16:33:20.441Z,56.21
2022-12-25T16:38:22.615Z,56.25
2022-12-25T16:43:25.484Z,56.22
2022-12-25T16:48:27.662Z,56.18
2022-12-25T16:53:30.364Z,56.00
2022-12-25T16:58:32.713Z,56.04
2022-12-25T17:03:35.583Z,56.03
2022-12-25T17:08:37.899Z,55.92
2022-12-25T17:13:40.083Z,55.72
2022-12-25T17:18:42.841Z,55.82
2022-12-25T17:23:45.348Z,56.00
2022-12-25T17:28:47.714Z,56.15
2022-12-25T17:33:49.901Z,56.15
2022-12-25T17:38:52.162Z,56.24
2022-12-25T17:43:54.561Z,55.92
2022-12-25T17:48:58.523Z,55.94
2022-12-25T17:54:05.701Z,55.92
2022-12-25T17:59:10.809Z,55.68
2022-12-25T18:04:13.231Z,55.73
2022-12-25T18:09:15.629Z,55.83
2022-12-25T18:14:17.933Z,55.92
2022-12-25T18:19:20.068Z,56.04
2022-12-25T18:24:22.225Z,55.94
2022-12-25T18:29:24.298Z,56.03
2022-12-25T18:34:26.463Z,56.03
2022-12-25T18:39:33.142Z,55.83
2022-12-25T18:44:35.394Z,55.86
2022-12-25T18:49:37.608Z,55.95
2022-12-25T18:54:39.780Z,56.02
2022-12-25T18:59:42.282Z,56.00
2022-12-25T19:04:44.695Z,56.19
2022-12-25T19:09:46.961Z,56.12
2022-12-25T19:14:49.383Z,56.06
2022-12-25T19:19:51.596Z,55.91
2022-12-25T19:24:53.713Z,55.97
2022-12-25T19:29:55.883Z,55.84
2022-12-25T19:34:58.051Z,55.88
2022-12-25T19:40:00.254Z,55.93
2022-12-25T19:45:03.344Z,55.91
2022-12-25T19:50:05.917Z,55.88
2022-12-25T19:55:08.506Z,55.84
2022-12-25T20:00:10.953Z,55.76
2022-12-25T20:05:15.733Z,55.70
2022-12-25T20:10:17.870Z,55.85
2022-12-25T20:15:20.452Z,55.95
2022-12-25T20:20:22.547Z,56.02
2022-12-25T20:25:25.693Z,55.87
2022-12-25T20:30:28.724Z,55.82
2022-12-25T20:35:31.115Z,55.91
2022-12-25T20:40:52.882Z,56.19
2022-12-25T20:45:55.639Z,56.13
2022-12-25T20:51:12.859Z,55.97
2022-12-25T20:56:17.438Z,55.98
2022-12-25T21:01:19.591Z,56.08
2022-12-25T21:06:22.909Z,56.32
2022-12-25T21:11:25.121Z,56.43
2022-12-25T21:16:27.385Z,56.27
2022-12-25T21:21:29.467Z,56.38
2022-12-25T21:26:34.642Z,56.20
2022-12-25T21:31:56.710Z,56.28
2022-12-25T21:36:58.883Z,56.08
2022-12-25T21:42:01.067Z,56.00
2022-12-25T21:47:03.365Z,56.05
2022-12-25T21:52:08.535Z,55.96
2022-12-25T21:57:10.671Z,55.82
2022-12-25T22:02:12.970Z,55.75
2022-12-25T22:07:18.018Z,55.97
2022-12-25T22:12:41.597Z,56.06
2022-12-25T22:18:02.005Z,56.09
2022-12-25T22:23:04.756Z,56.08
2022-12-25T22:28:08.646Z,55.86
2022-12-25T22:33:10.516Z,55.90
2022-12-25T22:38:12.665Z,55.79
2022-12-25T22:43:14.794Z,55.75
2022-12-25T22:48:17.006Z,55.73
2022-12-25T22:53:19.476Z,56.00
2022-12-25T22:58:21.653Z,55.94
2022-12-25T23:03:23.832Z,55.99
2022-12-25T23:08:26.013Z,55.79
2022-12-25T23:13:46.459Z,55.94
2022-12-25T23:19:17.934Z,55.85
2022-12-25T23:24:38.690Z,55.86
2022-12-25T23:29:40.874Z,55.90
2022-12-25T23:34:45.120Z,55.80
2022-12-25T23:39:48.349Z,55.78
2022-12-25T23:44:50.461Z,55.76
2022-12-25T23:49:52.681Z,55.59
2022-12-25T23:54:54.812Z,55.39
2022-12-25T23:59:56.863Z,55.57
